Time;durP1;ratioP1;P1;durP2;ratioP2;P2;SDS_P1;SDS_P2;PMS_P1;PMS_P2;Temp;Humidity;BMP_temperature;BMP_pressure;BME280_temperature;BME280_humidity;BME280_pressure;Samples;Min_cycle;Max_cycle;Signal;HPM_P1;HPM_P2
2022/08/11 00:02:07;;;;;;;10.18;9.07;;;;;;;;;;5061231;28;20123;-74
2022/08/11 00:04:38;;;;;;;9.30;8.40;;;;;;;;;;5057775;28;20032;-72
2022/08/11 00:07:03;;;;;;;10.45;8.27;;;;;;;;;;5060306;28;20112;-73
2022/08/11 00:09:33;;;;;;;9.27;7.13;;;;;;;;;;5060672;28;20419;-74
2022/08/11 00:11:59;;;;;;;9.15;7.43;;;;;;;;;;5061607;28;20021;-72
2022/08/11 00:14:26;;;;;;;8.52;7.78;;;;;;;;;;5062587;28;20035;-73
2022/08/11 00:17:02;;;;;;;7.95;7.13;;;;;;;;;;5063858;28;20020;-74
2022/08/11 00:19:29;;;;;;;8.52;7.75;;;;;;;;;;5059237;28;20021;-73
2022/08/11 00:21:55;;;;;;;8.70;7.20;;;;;;;;;;5061195;28;20039;-74
2022/08/11 00:24:22;;;;;;;8.85;7.47;;;;;;;;;;5066259;28;20107;-73
2022/08/11 00:26:51;;;;;;;10.52;6.85;;;;;;;;;;5063682;28;20507;-73
2022/08/11 00:29:17;;;;;;;7.07;6.47;;;;;;;;;;5063040;28;20043;-73
2022/08/11 00:31:53;;;;;;;7.55;6.82;;;;;;;;;;5064853;28;20371;-73
2022/08/11 00:34:29;;;;;;;10.57;8.30;;;;;;;;;;5064451;28;20438;-73
2022/08/11 00:36:55;;;;;;;11.05;8.32;;;;;;;;;;5060485;28;20024;-73
2022/08/11 00:39:21;;;;;;;14.30;8.23;;;;;;;;;;5064545;28;20043;-73
2022/08/11 00:42:07;;;;;;;9.25;8.25;;;;;;;;;;5062463;28;20045;-74
2022/08/11 00:44:39;;;;;;;8.98;8.07;;;;;;;;;;5049614;28;20040;-73
2022/08/11 00:47:12;;;;;;;15.27;8.35;;;;;;;;;;5063074;28;20025;-73
2022/08/11 00:49:56;;;;;;;9.48;8.55;;;;;;;;;;5064636;28;20040;-73
2022/08/11 00:52:24;;;;;;;10.20;8.20;;;;;;;;;;5063424;28;20029;-73
2022/08/11 00:55:02;;;;;;;10.38;7.90;;;;;;;;;;5064694;28;20085;-74
2022/08/11 00:57:45;;;;;;;11.88;9.25;;;;;;;;;;5061248;28;20040;-73
2022/08/11 01:00:13;;;;;;;15.65;10.38;;;;;;;;;;5062969;28;20025;-73
2022/08/11 01:02:51;;;;;;;10.13;8.63;;;;;;;;;;5062228;28;20024;-73
2022/08/11 01:05:37;;;;;;;10.57;8.68;;;;;;;;;;5062853;28;20038;-76
2022/08/11 01:08:17;;;;;;;12.32;9.77;;;;;;;;;;5064807;28;20199;-73
2022/08/11 01:11:02;;;;;;;13.27;9.00;;;;;;;;;;5063980;28;20029;-72
2022/08/11 01:13:53;;;;;;;24.67;9.18;;;;;;;;;;5062966;28;20107;-72
2022/08/11 01:16:24;;;;;;;10.95;9.32;;;;;;;;;;5019420;28;20033;-71
2022/08/11 01:18:53;;;;;;;11.38;9.45;;;;;;;;;;5020387;28;20172;-71
2022/08/11 01:21:37;;;;;;;16.92;10.70;;;;;;;;;;5018357;28;20045;-72
2022/08/11 01:24:21;;;;;;;12.98;10.70;;;;;;;;;;5022078;28;20033;-73
2022/08/11 01:27:05;;;;;;;13.13;10.10;;;;;;;;;;5016572;28;20475;-73
2022/08/11 01:29:57;;;;;;;11.38;10.23;;;;;;;;;;5018889;28;20049;-73
2022/08/11 01:32:31;;;;;;;12.15;10.85;;;;;;;;;;5021861;28;20031;-73
2022/08/11 01:35:15;;;;;;;16.05;11.15;;;;;;;;;;5020746;28;20062;-74
2022/08/11 01:37:46;;;;;;;18.13;11.13;;;;;;;;;;5017262;28;20037;-73
2022/08/11 01:40:22;;;;;;;20.48;11.65;;;;;;;;;;5020327;28;20037;-74
2022/08/11 01:45:41;;;;;;;11.40;10.20;;;;;;;;;;5021992;28;20028;-73
2022/08/11 01:48:25;;;;;;;15.38;11.73;;;;;;;;;;5018267;28;20050;-73
2022/08/11 01:50:56;;;;;;;15.55;11.70;;;;;;;;;;5020518;28;20056;-73
2022/08/11 01:53:30;;;;;;;11.43;10.10;;;;;;;;;;5042998;28;20119;-73
2022/08/11 01:56:14;;;;;;;10.73;9.73;;;;;;;;;;5060660;28;20454;-73
2022/08/11 01:58:47;;;;;;;9.45;8.55;;;;;;;;;;5062204;28;20112;-72
2022/08/11 02:01:12;;;;;;;9.35;8.45;;;;;;;;;;5061979;28;20890;-72
2022/08/11 02:03:57;;;;;;;9.63;8.82;;;;;;;;;;5062241;28;20124;-72
2022/08/11 02:06:53;;;;;;;13.00;8.95;;;;;;;;;;5062335;28;20078;-72
2022/08/11 02:09:28;;;;;;;11.18;9.65;;;;;;;;;;5062310;28;20068;-74
2022/08/11 02:11:57;;;;;;;14.18;10.07;;;;;;;;;;5060230;28;20139;-72
2022/08/11 02:14:25;;;;;;;16.65;11.25;;;;;;;;;;5063327;28;20166;-71
2022/08/11 02:16:56;;;;;;;12.73;10.43;;;;;;;;;;5061866;28;20137;-74
2022/08/11 02:25:44;;;;;;;12.98;10.77;;;;;;;;;;5060139;28;20118;-73
2022/08/11 02:28:15;;;;;;;17.88;12.23;;;;;;;;;;5063381;28;20025;-72
2022/08/11 02:33:21;;;;;;;14.73;11.90;;;;;;;;;;5059702;28;20024;-72
2022/08/11 02:33:34;;;;;;;15.85;12.35;;;;;;;;;;5062385;28;20036;-76
2022/08/11 02:36:18;;;;;;;16.70;13.63;;;;;;;;;;5062496;28;20107;-72
2022/08/11 02:39:02;;;;;;;27.15;14.32;;;;;;;;;;5061042;28;20377;-71
2022/08/11 02:44:28;;;;;;;22.02;13.32;;;;;;;;;;5060267;28;20047;-72
2022/08/11 02:46:53;;;;;;;;;;;;;;;;;;5063358;28;20021;-72
2022/08/11 02:52:36;;;;;;;20.58;13.63;;;;;;;;;;5057564;28;20043;-73
2022/08/11 02:55:20;;;;;;;20.13;15.05;;;;;;;;;;5049644;28;20088;-73
2022/08/11 02:57:52;;;;;;;15.85;14.07;;;;;;;;;;5042381;28;20085;-74
2022/08/11 03:00:18;;;;;;;18.67;12.90;;;;;;;;;;5010646;28;20052;-76
2022/08/11 03:03:04;;;;;;;10.70;9.60;;;;;;;;;;5009686;28;20030;-75
2022/08/11 03:05:40;;;;;;;9.95;8.90;;;;;;;;;;5025739;28;20033;-75
2022/08/11 03:08:24;;;;;;;10.45;9.45;;;;;;;;;;5024623;28;20061;-74
2022/08/11 03:17:13;;;;;;;8.65;7.93;;;;;;;;;;5016102;28;20364;-76
2022/08/11 03:19:58;;;;;;;9.55;8.57;;;;;;;;;;4960458;28;20042;-77
2022/08/11 03:22:29;;;;;;;8.45;7.65;;;;;;;;;;4963692;28;20027;-74
2022/08/11 03:25:00;;;;;;;8.35;7.65;;;;;;;;;;4948273;28;20090;-75
2022/08/11 03:27:29;;;;;;;8.80;7.90;;;;;;;;;;4963284;28;20038;-75
2022/08/11 03:30:07;;;;;;;8.88;7.90;;;;;;;;;;4963722;28;20101;-76
2022/08/11 03:32:38;;;;;;;7.45;6.75;;;;;;;;;;4961442;28;20130;-76
2022/08/11 03:35:04;;;;;;;7.47;6.78;;;;;;;;;;4963121;28;20035;-75
2022/08/11 03:37:49;;;;;;;7.97;7.18;;;;;;;;;;4950802;28;20050;-75
2022/08/11 03:43:18;;;;;;;7.28;6.28;;;;;;;;;;4949850;28;21003;-72
2022/08/11 03:45:49;;;;;;;8.13;6.40;;;;;;;;;;4957389;28;20438;-72
2022/08/11 03:48:14;;;;;;;6.38;5.78;;;;;;;;;;4948892;28;20530;-72
2022/08/11 03:50:45;;;;;;;6.75;6.07;;;;;;;;;;4952877;28;20078;-72
2022/08/11 03:53:15;;;;;;;6.57;5.93;;;;;;;;;;4954680;28;20122;-72
2022/08/11 03:55:40;;;;;;;;;;;;;;;;;;4972749;28;20041;-73
2022/08/11 03:58:15;;;;;;;6.60;6.10;;;;;;;;;;5010132;28;19916;-72
2022/08/11 04:00:46;;;;;;;6.63;6.03;;;;;;;;;;5027275;28;20021;-73
2022/08/11 04:03:23;;;;;;;6.78;6.13;;;;;;;;;;5024480;28;20061;-77
2022/08/11 04:05:49;;;;;;;8.82;6.80;;;;;;;;;;5026480;28;20065;-73
2022/08/11 04:08:14;;;;;;;7.22;6.63;;;;;;;;;;5026609;28;20087;-72
2022/08/11 04:10:58;;;;;;;8.40;7.57;;;;;;;;;;5026070;28;20513;-72
2022/08/11 04:13:42;;;;;;;8.32;7.63;;;;;;;;;;5026873;28;20036;-72
2022/08/11 04:16:26;;;;;;;8.77;7.93;;;;;;;;;;5027663;28;20022;-74
2022/08/11 04:19:09;;;;;;;7.43;6.82;;;;;;;;;;5028514;28;20021;-75
2022/08/11 04:21:50;;;;;;;9.98;8.43;;;;;;;;;;5025441;28;20563;-72
2022/08/11 04:24:35;;;;;;;8.25;7.40;;;;;;;;;;5027923;28;20421;-71
2022/08/11 04:27:10;;;;;;;9.23;8.43;;;;;;;;;;5027938;28;20108;-73
2022/08/11 04:29:44;;;;;;;9.52;8.70;;;;;;;;;;5026513;28;20033;-72
2022/08/11 04:32:30;;;;;;;9.57;8.68;;;;;;;;;;5028922;28;20029;-72
2022/08/11 04:34:55;;;;;;;10.95;8.85;;;;;;;;;;5027692;28;20076;-72
2022/08/11 04:37:33;;;;;;;9.77;8.88;;;;;;;;;;5028289;28;20313;-72
2022/08/11 04:40:01;;;;;;;10.27;9.30;;;;;;;;;;5027280;28;20025;-75
2022/08/11 04:45:29;;;;;;;11.35;8.85;;;;;;;;;;5027704;28;20032;-73
2022/08/11 05:03:05;;;;;;;11.95;9.32;;;;;;;;;;5025291;28;20048;-71
2022/08/11 05:05:49;;;;;;;10.55;9.43;;;;;;;;;;5025800;28;20025;-74
2022/08/11 05:08:33;;;;;;;11.88;9.68;;;;;;;;;;5026149;28;20127;-72
2022/08/11 05:11:19;;;;;;;9.27;8.38;;;;;;;;;;5023223;28;20112;-71
2022/08/11 05:36:26;;;;;;;12.95;11.05;;;;;;;;;;5023600;28;20048;-72
2022/08/11 05:58:06;;;;;;;14.43;12.93;;;;;;;;;;5023448;28;20055;-71
2022/08/11 06:00:40;;;;;;;13.57;12.15;;;;;;;;;;5022971;28;20492;-72
2022/08/11 06:03:09;;;;;;;13.32;12.02;;;;;;;;;;5024695;28;20091;-72
2022/08/11 06:05:40;;;;;;;15.23;13.10;;;;;;;;;;5022727;28;20421;-72
2022/08/11 06:08:06;;;;;;;15.32;13.63;;;;;;;;;;5024192;28;20433;-74
2022/08/11 06:10:39;;;;;;;16.20;13.95;;;;;;;;;;5024598;28;20086;-71
2022/08/11 06:13:05;;;;;;;15.55;13.30;;;;;;;;;;5021284;28;20026;-73
2022/08/11 06:15:33;;;;;;;15.23;13.48;;;;;;;;;;5024622;28;20868;-74
2022/08/11 06:18:00;;;;;;;13.50;12.18;;;;;;;;;;5023636;28;20026;-71
2022/08/11 06:20:31;;;;;;;13.95;12.65;;;;;;;;;;5024364;28;20119;-77
2022/08/11 06:23:01;;;;;;;13.73;11.10;;;;;;;;;;5025040;28;20041;-75
2022/08/11 06:25:30;;;;;;;13.05;11.75;;;;;;;;;;5023004;28;20021;-75
2022/08/11 06:27:56;;;;;;;12.98;11.75;;;;;;;;;;5023794;28;20483;-72
2022/08/11 06:30:32;;;;;;;13.90;12.30;;;;;;;;;;5024386;28;20033;-72
2022/08/11 06:32:59;;;;;;;16.13;10.88;;;;;;;;;;5022807;28;20403;-74
2022/08/11 06:35:44;;;;;;;12.15;11.05;;;;;;;;;;5023224;28;20025;-74
2022/08/11 06:38:19;;;;;;;12.80;11.50;;;;;;;;;;5025461;28;20048;-71
2022/08/11 06:43:50;;;;;;;12.73;11.52;;;;;;;;;;5022460;28;20055;-71
2022/08/11 06:46:22;;;;;;;12.80;10.48;;;;;;;;;;5022392;28;20032;-75
2022/08/11 06:48:48;;;;;;;13.48;11.50;;;;;;;;;;5022270;28;20045;-75
2022/08/11 06:51:14;;;;;;;12.65;10.70;;;;;;;;;;5023709;28;20087;-72
2022/08/11 06:53:43;;;;;;;13.43;12.05;;;;;;;;;;5023251;28;20037;-71
2022/08/11 07:01:45;;;;;;;12.82;11.80;;;;;;;;;;5021179;28;20079;-73
2022/08/11 07:04:12;;;;;;;11.65;10.55;;;;;;;;;;5020035;28;20423;-73
2022/08/11 07:06:37;;;;;;;10.95;9.75;;;;;;;;;;5021916;28;20065;-72
2022/08/11 07:17:35;;;;;;;13.73;12.07;;;;;;;;;;5022375;28;20055;-74
2022/08/11 07:31:27;;;;;;;11.65;10.65;;;;;;;;;;5022604;28;20058;-72
2022/08/11 07:34:13;;;;;;;12.95;11.75;;;;;;;;;;5020538;28;20033;-71
2022/08/11 07:36:40;;;;;;;11.70;10.70;;;;;;;;;;5021879;28;20047;-74
2022/08/11 07:39:07;;;;;;;13.25;11.95;;;;;;;;;;5021432;28;20038;-74
2022/08/11 07:41:33;;;;;;;12.63;11.43;;;;;;;;;;5021277;28;20068;-72
2022/08/11 07:44:08;;;;;;;12.48;11.07;;;;;;;;;;5020966;28;20029;-72
2022/08/11 07:52:27;;;;;;;10.38;9.32;;;;;;;;;;5021213;28;20227;-74
2022/08/11 07:54:54;;;;;;;10.07;9.20;;;;;;;;;;5022717;28;20057;-72
2022/08/11 08:19:14;;;;;;;8.95;8.02;;;;;;;;;;5023528;28;20095;-72
2022/08/11 08:21:40;;;;;;;7.43;6.72;;;;;;;;;;5021457;28;20108;-75
2022/08/11 08:24:06;;;;;;;7.53;6.85;;;;;;;;;;5023662;28;20120;-72
2022/08/11 08:32:00;;;;;;;6.78;6.00;;;;;;;;;;5021081;28;21198;-74
2022/08/11 08:34:26;;;;;;;7.38;6.78;;;;;;;;;;5021074;28;20021;-72
2022/08/11 08:36:51;;;;;;;7.13;6.47;;;;;;;;;;5024835;28;20056;-73
2022/08/11 08:39:21;;;;;;;8.05;5.88;;;;;;;;;;5008494;28;20450;-77
2022/08/11 08:41:49;;;;;;;9.48;6.20;;;;;;;;;;5024427;28;20049;-73
2022/08/11 08:44:16;;;;;;;6.38;5.78;;;;;;;;;;5024024;28;20029;-74
2022/08/11 08:46:43;;;;;;;6.05;5.45;;;;;;;;;;5024721;28;20029;-72
2022/08/11 08:49:11;;;;;;;6.72;6.13;;;;;;;;;;5024461;28;20036;-73
2022/08/11 08:51:38;;;;;;;6.72;6.20;;;;;;;;;;5025245;28;20025;-72
2022/08/11 08:54:08;;;;;;;6.35;5.75;;;;;;;;;;5025656;28;20483;-76
2022/08/11 08:56:34;;;;;;;7.47;5.55;;;;;;;;;;5024598;28;20032;-75
2022/08/11 08:59:01;;;;;;;6.68;5.95;;;;;;;;;;5024833;28;20038;-73
2022/08/11 09:01:35;;;;;;;6.93;5.40;;;;;;;;;;5026010;28;20030;-75
2022/08/11 09:04:00;;;;;;;6.38;5.18;;;;;;;;;;5024647;28;20336;-75
2022/08/11 09:06:29;;;;;;;6.30;5.43;;;;;;;;;;5025689;28;20033;-76
2022/08/11 09:08:54;;;;;;;5.75;4.93;;;;;;;;;;5024541;28;20040;-74
2022/08/11 09:14:05;;;;;;;5.05;4.65;;;;;;;;;;5024519;28;20032;-75
2022/08/11 09:16:31;;;;;;;4.82;4.43;;;;;;;;;;5024296;28;20033;-77
2022/08/11 09:18:59;;;;;;;8.35;4.88;;;;;;;;;;5024814;28;20388;-73
2022/08/11 09:21:24;;;;;;;5.40;4.90;;;;;;;;;;5024882;28;20029;-74
2022/08/11 09:29:19;;;;;;;4.43;4.10;;;;;;;;;;5024528;28;20044;-73
2022/08/11 09:31:45;;;;;;;5.78;4.47;;;;;;;;;;5023411;28;20030;-73
2022/08/11 09:34:12;;;;;;;6.90;4.38;;;;;;;;;;5023324;28;20112;-74
2022/08/11 09:42:08;;;;;;;6.75;6.10;;;;;;;;;;5024999;28;20369;-74
2022/08/11 09:44:49;;;;;;;8.88;6.80;;;;;;;;;;5024331;28;20478;-74
2022/08/11 09:47:20;;;;;;;13.32;7.88;;;;;;;;;;5024833;28;20082;-75
2022/08/11 09:49:47;;;;;;;7.53;6.40;;;;;;;;;;5024053;28;20287;-75
2022/08/11 09:52:14;;;;;;;6.70;5.63;;;;;;;;;;5026700;28;20387;-75
2022/08/11 09:54:43;;;;;;;5.47;4.60;;;;;;;;;;5024767;28;20029;-75
2022/08/11 09:59:52;;;;;;;8.73;5.95;;;;;;;;;;5024418;28;20063;-76
2022/08/11 10:02:22;;;;;;;7.05;6.32;;;;;;;;;;5024542;28;20432;-75
2022/08/11 10:04:50;;;;;;;6.07;5.55;;;;;;;;;;5023974;28;20037;-75
2022/08/11 10:07:17;;;;;;;6.65;6.10;;;;;;;;;;5023826;28;20120;-76
2022/08/11 10:09:45;;;;;;;9.05;6.15;;;;;;;;;;5021758;28;20025;-75
2022/08/11 10:12:34;;;;;;;8.93;7.97;;;;;;;;;;5024175;28;20109;-75
2022/08/11 10:18:41;;;;;;;11.68;8.02;;;;;;;;;;5023551;28;19979;-77
2022/08/11 10:20:32;;;;;;;9.68;8.77;;;;;;;;;;5024153;28;20041;-75
2022/08/11 10:28:26;;;;;;;7.65;6.95;;;;;;;;;;5023656;28;20148;-75
2022/08/11 10:36:20;;;;;;;5.72;4.80;;;;;;;;;;5022455;28;20412;-74
2022/08/11 10:38:49;;;;;;;5.47;4.80;;;;;;;;;;5022987;28;20500;-75
2022/08/11 10:43:58;;;;;;;6.15;5.65;;;;;;;;;;5021672;28;20130;-74
2022/08/11 10:49:08;;;;;;;5.20;4.78;;;;;;;;;;5023067;28;20117;-73
2022/08/11 10:59:47;;;;;;;5.50;5.07;;;;;;;;;;5022312;28;20035;-74
2022/08/11 11:02:13;;;;;;;5.30;4.82;;;;;;;;;;5022137;28;20025;-73
2022/08/11 11:04:57;;;;;;;5.00;4.60;;;;;;;;;;5021226;28;20030;-73
2022/08/11 11:07:25;;;;;;;4.97;4.47;;;;;;;;;;5021809;28;20122;-73
2022/08/11 11:09:59;;;;;;;5.30;4.80;;;;;;;;;;5024755;28;20099;-76
2022/08/11 11:18:03;;;;;;;4.45;4.10;;;;;;;;;;5021677;28;20120;-75
2022/08/11 11:20:42;;;;;;;4.97;4.47;;;;;;;;;;5022938;28;20090;-75
2022/08/11 11:23:12;;;;;;;4.78;4.30;;;;;;;;;;5024142;28;20029;-75
2022/08/11 11:25:38;;;;;;;4.57;4.10;;;;;;;;;;5024704;28;20301;-74
2022/08/11 11:28:25;;;;;;;3.45;3.20;;;;;;;;;;5023097;28;20048;-74
2022/08/11 11:30:57;;;;;;;3.85;3.45;;;;;;;;;;5021178;28;20029;-75
2022/08/11 11:33:28;;;;;;;3.17;2.97;;;;;;;;;;5023587;28;20029;-75
2022/08/11 11:35:54;;;;;;;2.85;2.65;;;;;;;;;;5019830;28;20040;-75
2022/08/11 11:38:20;;;;;;;2.92;2.72;;;;;;;;;;5022875;28;20074;-74
2022/08/11 11:41:23;;;;;;;4.50;3.10;;;;;;;;;;5023126;28;20380;-76
2022/08/11 11:43:32;;;;;;;3.42;2.85;;;;;;;;;;5024281;28;20025;-75
2022/08/11 11:45:58;;;;;;;2.70;2.50;;;;;;;;;;5023555;28;20039;-75
2022/08/11 11:48:27;;;;;;;3.13;2.70;;;;;;;;;;5022435;28;20029;-75
2022/08/11 11:50:53;;;;;;;2.88;2.67;;;;;;;;;;5021703;28;20061;-76
2022/08/11 11:53:19;;;;;;;2.95;2.65;;;;;;;;;;5022761;28;20057;-76
2022/08/11 11:55:44;;;;;;;2.28;2.17;;;;;;;;;;5022250;28;20057;-75
2022/08/11 12:03:39;;;;;;;2.40;2.30;;;;;;;;;;5020429;28;20170;-75
2022/08/11 12:06:07;;;;;;;2.42;2.33;;;;;;;;;;5021244;28;20112;-75
2022/08/11 12:08:32;;;;;;;3.50;2.40;;;;;;;;;;5005281;28;20388;-75
2022/08/11 12:13:49;;;;;;;3.42;2.35;;;;;;;;;;5025991;28;20185;-75
2022/08/11 12:16:15;;;;;;;3.22;2.40;;;;;;;;;;5028964;28;20034;-74
2022/08/11 12:18:41;;;;;;;2.80;2.60;;;;;;;;;;5027184;28;20039;-74
2022/08/11 12:21:07;;;;;;;2.70;2.50;;;;;;;;;;5011156;28;20025;-76
2022/08/11 12:29:06;;;;;;;2.30;2.20;;;;;;;;;;5026071;28;20148;-75
2022/08/11 12:31:33;;;;;;;2.75;2.55;;;;;;;;;;5025616;28;20108;-75
2022/08/11 12:34:06;;;;;;;2.88;2.58;;;;;;;;;;5026618;28;20493;-77
2022/08/11 12:36:58;;;;;;;2.88;2.67;;;;;;;;;;5028530;28;20025;-75
2022/08/11 12:53:15;;;;;;;2.97;2.58;;;;;;;;;;5027193;28;20359;-74
2022/08/11 12:58:25;;;;;;;2.92;2.55;;;;;;;;;;5026600;28;20052;-77
2022/08/11 13:06:23;;;;;;;3.25;2.97;;;;;;;;;;5024176;28;20097;-75
2022/08/11 13:08:49;;;;;;;3.22;3.03;;;;;;;;;;5023966;28;20435;-75
2022/08/11 13:14:00;;;;;;;2.90;2.70;;;;;;;;;;5025463;28;20463;-74
2022/08/11 13:16:27;;;;;;;3.50;3.20;;;;;;;;;;5023467;28;20029;-75
2022/08/11 13:18:53;;;;;;;2.92;2.72;;;;;;;;;;5028186;28;20056;-75
2022/08/11 13:21:20;;;;;;;3.05;2.85;;;;;;;;;;5027537;28;20141;-75
2022/08/11 13:23:45;;;;;;;3.17;2.97;;;;;;;;;;5024711;28;20463;-75
2022/08/11 13:26:11;;;;;;;3.72;3.38;;;;;;;;;;5025532;28;20025;-75
2022/08/11 13:28:37;;;;;;;3.10;2.90;;;;;;;;;;5027293;28;20029;-75
2022/08/11 13:31:13;;;;;;;2.83;2.63;;;;;;;;;;5025568;28;20162;-74
2022/08/11 13:33:44;;;;;;;3.30;3.00;;;;;;;;;;5024689;28;20025;-76
2022/08/11 13:36:10;;;;;;;3.50;3.13;;;;;;;;;;5028381;28;20022;-75
2022/08/11 13:38:36;;;;;;;3.78;3.47;;;;;;;;;;5027572;28;20033;-75
2022/08/11 13:41:36;;;;;;;3.42;3.13;;;;;;;;;;5025193;28;20114;-77
2022/08/11 13:43:49;;;;;;;3.45;2.95;;;;;;;;;;5024708;28;20071;-76
2022/08/11 13:46:19;;;;;;;3.67;3.35;;;;;;;;;;5024005;28;20388;-74
2022/08/11 13:48:45;;;;;;;3.38;3.17;;;;;;;;;;5024189;28;20029;-75
2022/08/11 13:51:30;;;;;;;3.60;3.40;;;;;;;;;;5026509;28;20036;-75
2022/08/11 13:54:08;;;;;;;2.47;2.28;;;;;;;;;;5024509;28;20029;-76
2022/08/11 13:56:41;;;;;;;5.13;3.17;;;;;;;;;;5023935;28;20021;-74
2022/08/11 13:59:07;;;;;;;3.55;3.25;;;;;;;;;;5026634;28;20025;-75
2022/08/11 14:01:34;;;;;;;3.20;2.90;;;;;;;;;;5023714;28;20018;-75
2022/08/11 14:04:19;;;;;;;6.85;3.25;;;;;;;;;;5024017;28;20040;-75
2022/08/11 14:06:47;;;;;;;3.72;3.28;;;;;;;;;;5011674;28;20045;-75
2022/08/11 14:09:14;;;;;;;2.83;2.63;;;;;;;;;;5023484;28;20025;-76
2022/08/11 14:14:29;;;;;;;3.17;2.85;;;;;;;;;;5024056;28;20040;-79
2022/08/11 14:16:55;;;;;;;3.47;2.53;;;;;;;;;;5022772;28;20033;-74
2022/08/11 14:19:22;;;;;;;2.75;2.55;;;;;;;;;;5022704;28;20036;-78
2022/08/11 14:22:08;;;;;;;2.88;2.67;;;;;;;;;;5023618;28;20480;-75
2022/08/11 14:24:36;;;;;;;3.05;2.75;;;;;;;;;;5023012;28;20028;-75
2022/08/11 14:27:02;;;;;;;2.97;2.78;;;;;;;;;;5024518;28;20033;-75
2022/08/11 14:29:27;;;;;;;2.78;2.58;;;;;;;;;;5024369;28;20463;-76
2022/08/11 14:31:53;;;;;;;4.53;2.83;;;;;;;;;;5024405;28;20119;-75
2022/08/11 14:34:20;;;;;;;3.40;3.10;;;;;;;;;;5023561;28;20022;-74
2022/08/11 14:36:49;;;;;;;3.22;2.90;;;;;;;;;;5024472;28;20447;-76
2022/08/11 14:39:17;;;;;;;4.57;2.78;;;;;;;;;;5023695;28;20413;-75
2022/08/11 14:47:15;;;;;;;6.20;2.85;;;;;;;;;;5024114;28;20116;-75
2022/08/11 14:49:42;;;;;;;3.58;3.25;;;;;;;;;;5023187;28;20104;-75
2022/08/11 14:52:09;;;;;;;4.80;3.15;;;;;;;;;;5020893;28;20025;-74
2022/08/11 14:57:19;;;;;;;3.55;3.25;;;;;;;;;;5022902;28;20155;-74
2022/08/11 14:59:47;;;;;;;3.80;3.47;;;;;;;;;;5022381;28;20067;-76
2022/08/11 15:04:57;;;;;;;3.70;3.40;;;;;;;;;;5022810;28;20113;-74
2022/08/11 15:07:28;;;;;;;3.55;3.25;;;;;;;;;;5024799;28;20033;-75
2022/08/11 15:09:55;;;;;;;4.03;3.65;;;;;;;;;;5024444;28;20033;-74
2022/08/11 15:12:21;;;;;;;14.10;3.75;;;;;;;;;;5024284;28;20021;-75
2022/08/11 15:17:34;;;;;;;5.03;3.63;;;;;;;;;;5022973;28;20440;-75
2022/08/11 15:25:42;;;;;;;4.55;3.22;;;;;;;;;;5011641;28;20850;-76
2022/08/11 15:39:15;;;;;;;5.93;3.30;;;;;;;;;;5023638;28;20048;-74
2022/08/11 15:47:17;;;;;;;3.20;2.75;;;;;;;;;;5022261;28;20098;-76
2022/08/11 15:49:44;;;;;;;3.42;3.10;;;;;;;;;;5022659;28;20048;-75
2022/08/11 15:52:11;;;;;;;3.15;2.88;;;;;;;;;;5021435;28;20025;-75
2022/08/11 15:54:40;;;;;;;3.13;2.92;;;;;;;;;;5020888;28;20029;-75
2022/08/11 15:57:07;;;;;;;3.25;3.05;;;;;;;;;;5022328;28;20036;-75
2022/08/11 16:05:06;;;;;;;2.85;2.65;;;;;;;;;;5020844;28;20113;-75
2022/08/11 16:07:34;;;;;;;3.13;2.92;;;;;;;;;;5020075;28;20331;-75
2022/08/11 16:10:10;;;;;;;3.22;2.85;;;;;;;;;;5022945;28;20437;-75
2022/08/11 16:12:41;;;;;;;3.30;3.00;;;;;;;;;;5022629;28;20029;-74
2022/08/11 16:17:54;;;;;;;3.50;3.20;;;;;;;;;;5021689;28;20045;-75
2022/08/11 16:20:21;;;;;;;4.38;3.25;;;;;;;;;;5023184;28;20078;-76
2022/08/11 16:22:48;;;;;;;3.42;3.13;;;;;;;;;;5021091;28;20025;-72
2022/08/11 16:25:16;;;;;;;2.92;2.72;;;;;;;;;;5022382;28;20040;-74
2022/08/11 16:27:42;;;;;;;3.40;3.10;;;;;;;;;;5023514;28;20047;-75
2022/08/11 16:30:09;;;;;;;3.50;3.05;;;;;;;;;;5022076;28;20135;-74
2022/08/11 16:32:35;;;;;;;3.60;3.30;;;;;;;;;;5022787;28;20414;-76
2022/08/11 16:40:32;;;;;;;3.58;3.33;;;;;;;;;;5021826;28;20080;-74
2022/08/11 16:48:31;;;;;;;3.63;3.33;;;;;;;;;;5022284;28;20463;-75
2022/08/11 16:50:59;;;;;;;3.60;3.30;;;;;;;;;;5023674;28;20045;-74
2022/08/11 16:53:26;;;;;;;6.67;3.60;;;;;;;;;;5021075;28;20032;-76
2022/08/11 16:55:52;;;;;;;3.40;3.10;;;;;;;;;;5005881;28;20021;-75
2022/08/11 17:01:02;;;;;;;3.95;3.65;;;;;;;;;;5024565;28;20479;-74
2022/08/11 17:14:37;;;;;;;4.68;3.65;;;;;;;;;;5024627;28;20472;-74
2022/08/11 17:17:11;;;;;;;3.88;3.58;;;;;;;;;;5025135;28;20036;-75
2022/08/11 17:19:38;;;;;;;4.40;4.00;;;;;;;;;;5025115;28;20029;-76
2022/08/11 17:24:50;;;;;;;5.57;4.13;;;;;;;;;;5025738;28;20056;-76
2022/08/11 17:27:16;;;;;;;3.88;3.58;;;;;;;;;;5022670;28;20460;-75
2022/08/11 17:29:42;;;;;;;4.70;4.03;;;;;;;;;;5025413;28;20033;-76
2022/08/11 17:37:39;;;;;;;4.72;4.32;;;;;;;;;;5024552;28;20044;-76
2022/08/11 17:40:07;;;;;;;4.90;4.35;;;;;;;;;;5025643;28;20037;-75
2022/08/11 17:50:48;;;;;;;5.32;4.50;;;;;;;;;;5023030;28;20044;-75
2022/08/11 18:01:44;;;;;;;6.03;5.43;;;;;;;;;;5023704;28;20028;-75
2022/08/11 18:04:11;;;;;;;5.55;5.00;;;;;;;;;;5022936;28;20420;-75
2022/08/11 18:06:39;;;;;;;5.47;4.97;;;;;;;;;;5022862;28;20321;-77
